Time;durP1;ratioP1;P1;durP2;ratioP2;P2;SDS_P1;SDS_P2;PMS_P1;PMS_P2;Temp;Humidity;BMP_temperature;BMP_pressure;BME280_temperature;BME280_humidity;BME280_pressure;Samples;Min_cycle;Max_cycle;Signal;HPM_P1;HPM_P2
2022/09/17 00:00:39;;;;;;;0.90;0.90;;;11.90;97.30;;;;;;4986373;28;20208;-93
2022/09/17 00:03:07;;;;;;;1.10;1.00;;;11.80;97.30;;;;;;4987429;28;21022;-93
2022/09/17 00:05:37;;;;;;;1.20;1.10;;;11.80;97.30;;;;;;4985442;28;20448;-94
2022/09/17 00:08:04;;;;;;;9.00;1.67;;;11.80;97.30;;;;;;4985648;28;20429;-94
2022/09/17 00:10:31;;;;;;;2.07;1.60;;;11.80;97.30;;;;;;4990805;28;20501;-93
2022/09/17 00:12:56;;;;;;;1.67;1.30;;;11.70;97.30;;;;;;4988739;28;20448;-93
2022/09/17 00:15:22;;;;;;;1.10;1.00;;;11.70;97.30;;;;;;5002621;28;20843;-94
2022/09/17 00:17:54;;;;;;;1.20;1.10;;;11.70;97.30;;;;;;4983892;28;20177;-93
2022/09/17 00:20:20;;;;;;;1.97;1.10;;;11.70;97.30;;;;;;4983596;28;20236;-93
2022/09/17 00:22:46;;;;;;;1.07;1.03;;;11.70;97.30;;;;;;4980938;28;20463;-93
2022/09/17 00:25:11;;;;;;;1.00;0.90;;;11.70;97.30;;;;;;4984632;28;20421;-92
2022/09/17 00:27:37;;;;;;;1.23;1.00;;;11.70;97.30;;;;;;4984310;28;20241;-93
2022/09/17 00:30:03;;;;;;;0.80;0.80;;;11.70;97.30;;;;;;5000060;28;20184;-93
2022/09/17 00:32:29;;;;;;;1.00;0.90;;;11.70;97.30;;;;;;4978983;28;20699;-92
2022/09/17 00:34:54;;;;;;;2.10;1.57;;;11.70;97.30;;;;;;4979890;28;20445;-93
2022/09/17 00:37:21;;;;;;;8.93;1.30;;;11.70;97.30;;;;;;4986605;28;20425;-91
2022/09/17 00:39:46;;;;;;;1.50;1.50;;;11.70;97.30;;;;;;4982239;28;20187;-91
2022/09/17 00:42:13;;;;;;;1.10;1.00;;;11.70;97.30;;;;;;4986371;28;20547;-94
2022/09/17 00:44:49;;;;;;;1.00;0.90;;;11.70;97.30;;;;;;4984021;28;20273;-93
2022/09/17 00:47:38;;;;;;;5.17;1.73;;;11.80;97.30;;;;;;4984655;28;20424;-93
2022/09/17 00:50:35;;;;;;;1.00;0.90;;;11.80;97.30;;;;;;4971954;28;20440;-91
2022/09/17 00:53:05;;;;;;;1.73;1.63;;;11.80;97.30;;;;;;4979700;28;20437;-92
2022/09/17 00:55:36;;;;;;;2.03;1.20;;;11.80;97.30;;;;;;4998576;28;20411;-92
2022/09/17 00:58:06;;;;;;;1.10;1.00;;;11.80;97.30;;;;;;4978722;28;20429;-92
2022/09/17 01:00:32;;;;;;;1.13;1.03;;;11.80;97.30;;;;;;4997875;28;20428;-93
2022/09/17 01:02:58;;;;;;;0.87;0.83;;;11.90;97.30;;;;;;4983456;28;20468;-92
2022/09/17 01:05:52;;;;;;;1.57;1.47;;;11.90;97.30;;;;;;4978454;28;20440;-93
2022/09/17 01:08:42;;;;;;;1.17;1.13;;;11.90;97.30;;;;;;4977803;28;20513;-93
2022/09/17 01:11:29;;;;;;;1.13;1.10;;;11.90;97.30;;;;;;4984192;28;20461;-92
2022/09/17 01:14:13;;;;;;;1.00;0.90;;;11.90;97.30;;;;;;4984425;28;20510;-93
2022/09/17 01:17:02;;;;;;;0.90;0.90;;;11.90;97.30;;;;;;4982086;28;20425;-93
2022/09/17 01:19:52;;;;;;;1.00;0.90;;;11.90;97.30;;;;;;4995681;28;21173;-94
2022/09/17 01:22:29;;;;;;;1.00;0.90;;;12.00;97.30;;;;;;4982368;28;20516;-94
2022/09/17 01:25:23;;;;;;;1.10;1.00;;;12.00;97.30;;;;;;4999959;28;20452;-94
2022/09/17 01:28:07;;;;;;;1.23;1.13;;;12.00;97.30;;;;;;4996578;28;20444;-95
2022/09/17 01:31:09;;;;;;;1.43;0.97;;;12.00;97.30;;;;;;5006416;28;20412;-93
2022/09/17 01:33:45;;;;;;;1.17;1.07;;;12.00;97.30;;;;;;4990490;28;20440;-93
2022/09/17 01:36:35;;;;;;;3.83;1.10;;;12.00;97.30;;;;;;4980329;28;20424;-94
2022/09/17 01:39:11;;;;;;;1.50;1.30;;;12.00;97.30;;;;;;4988595;28;20397;-93
2022/09/17 01:42:01;;;;;;;2.50;1.93;;;12.10;97.30;;;;;;4987304;28;20421;-93
2022/09/17 01:44:39;;;;;;;1.27;1.10;;;12.10;97.30;;;;;;4992232;28;20459;-93
2022/09/17 01:47:20;;;;;;;1.10;1.00;;;12.10;97.30;;;;;;4987305;28;20423;-92
2022/09/17 01:49:47;;;;;;;2.40;2.20;;;12.10;97.30;;;;;;4982482;28;20417;-94
2022/09/17 01:52:14;;;;;;;0.93;0.87;;;12.10;97.30;;;;;;4985860;28;20413;-93
2022/09/17 01:54:48;;;;;;;1.07;0.97;;;12.10;97.30;;;;;;4982139;28;20783;-92
2022/09/17 01:57:32;;;;;;;1.00;0.90;;;12.10;97.30;;;;;;4985126;28;20410;-93
2022/09/17 02:00:06;;;;;;;1.00;0.90;;;12.10;97.30;;;;;;4999341;28;20499;-91
2022/09/17 02:02:39;;;;;;;1.07;0.97;;;12.10;97.30;;;;;;4984331;28;21057;-93
2022/09/17 02:05:14;;;;;;;0.87;0.83;;;12.20;97.30;;;;;;4986870;28;20452;-93
2022/09/17 02:07:44;;;;;;;0.90;0.80;;;12.20;97.30;;;;;;4982322;28;20430;-93
2022/09/17 02:10:16;;;;;;;17.67;1.30;;;12.20;97.30;;;;;;4979387;28;20472;-94
2022/09/17 02:12:50;;;;;;;1.00;0.90;;;12.20;97.30;;;;;;4983351;28;20468;-93
2022/09/17 02:15:21;;;;;;;1.10;1.00;;;12.20;97.30;;;;;;4980697;28;20496;-92
2022/09/17 02:18:07;;;;;;;1.10;1.00;;;12.20;97.30;;;;;;4992951;28;20428;-95
2022/09/17 02:20:44;;;;;;;1.30;1.20;;;12.20;97.30;;;;;;4984845;28;20483;-93
2022/09/17 02:23:16;;;;;;;0.90;0.90;;;12.20;97.30;;;;;;4980992;28;20472;-93
2022/09/17 02:25:49;;;;;;;1.00;0.90;;;12.20;97.30;;;;;;5002303;28;20530;-93
2022/09/17 02:28:39;;;;;;;1.57;1.00;;;12.20;97.30;;;;;;4985715;28;20421;-94
2022/09/17 02:31:07;;;;;;;1.00;0.90;;;12.20;97.30;;;;;;5003208;28;20413;-94
2022/09/17 02:33:35;;;;;;;0.80;0.80;;;12.20;97.30;;;;;;4985830;28;20715;-92
2022/09/17 02:36:02;;;;;;;18.23;2.67;;;12.20;97.30;;;;;;4991242;28;20446;-93
2022/09/17 02:38:30;;;;;;;2.57;1.47;;;12.20;97.30;;;;;;4993355;28;20420;-95
2022/09/17 02:41:23;;;;;;;1.00;0.90;;;12.20;97.30;;;;;;4987815;28;20428;-95
2022/09/17 02:44:13;;;;;;;0.97;0.90;;;12.10;97.30;;;;;;5019030;28;20464;-94
2022/09/17 02:47:18;;;;;;;1.00;0.90;;;12.10;97.30;;;;;;5014836;28;20470;-95
2022/09/17 02:50:03;;;;;;;0.80;0.80;;;12.10;97.30;;;;;;5007882;28;20429;-93
2022/09/17 02:52:55;;;;;;;1.10;1.00;;;12.10;97.30;;;;;;4986916;28;20455;-93
2022/09/17 02:55:44;;;;;;;1.10;1.00;;;12.10;97.30;;;;;;4990253;28;20435;-95
2022/09/17 02:58:28;;;;;;;0.80;0.80;;;12.10;97.30;;;;;;4992946;28;20807;-93
2022/09/17 03:00:57;;;;;;;1.20;1.20;;;12.10;97.30;;;;;;4991115;28;20436;-94
2022/09/17 03:03:37;;;;;;;2.83;1.33;;;12.00;97.30;;;;;;4989981;28;20496;-93
2022/09/17 03:06:04;;;;;;;0.80;0.80;;;12.00;97.30;;;;;;4988633;28;20424;-96
2022/09/17 03:08:39;;;;;;;0.90;0.80;;;12.00;97.30;;;;;;4978231;28;20421;-95
2022/09/17 03:11:08;;;;;;;1.10;1.00;;;11.90;97.30;;;;;;4988904;28;20468;-92
2022/09/17 03:13:35;;;;;;;0.70;0.70;;;11.90;97.30;;;;;;4989183;28;20514;-93
2022/09/17 03:16:01;;;;;;;1.00;0.90;;;11.80;97.30;;;;;;4989909;28;20421;-92
2022/09/17 03:18:27;;;;;;;1.10;1.00;;;11.80;97.30;;;;;;4987074;28;20429;-91
2022/09/17 03:20:52;;;;;;;0.87;0.80;;;11.80;97.30;;;;;;4990034;28;20444;-95
2022/09/17 03:23:18;;;;;;;1.00;0.90;;;11.80;97.30;;;;;;4993644;28;20264;-94
2022/09/17 03:25:45;;;;;;;0.90;0.90;;;11.70;97.30;;;;;;4986744;28;20220;-92
2022/09/17 03:28:11;;;;;;;5.03;1.33;;;11.70;97.30;;;;;;5004367;28;20182;-94
2022/09/17 03:30:36;;;;;;;0.80;0.80;;;11.60;97.30;;;;;;5015672;28;20450;-95
2022/09/17 03:33:02;;;;;;;1.10;1.00;;;11.60;97.30;;;;;;5018194;28;20206;-96
2022/09/17 03:35:27;;;;;;;1.13;1.07;;;11.60;97.30;;;;;;5015812;28;20196;-94
2022/09/17 03:37:53;;;;;;;1.10;1.00;;;11.60;97.30;;;;;;5000798;28;20267;-95
2022/09/17 03:40:18;;;;;;;0.97;0.93;;;11.60;97.30;;;;;;5003309;28;20197;-94
2022/09/17 03:42:44;;;;;;;1.00;0.90;;;11.50;97.30;;;;;;5003230;28;20315;-93
2022/09/17 03:45:10;;;;;;;0.87;0.83;;;11.50;97.30;;;;;;4984538;28;20185;-94
2022/09/17 03:47:36;;;;;;;1.07;0.90;;;11.50;97.30;;;;;;4984838;28;20186;-93
2022/09/17 03:50:03;;;;;;;1.10;1.00;;;11.50;97.30;;;;;;5001176;28;20417;-93
2022/09/17 03:52:29;;;;;;;1.00;0.90;;;11.50;97.30;;;;;;4983733;28;20457;-92
2022/09/17 03:54:54;;;;;;;1.00;0.90;;;11.40;97.30;;;;;;4999617;28;20444;-93
2022/09/17 03:57:22;;;;;;;1.03;0.90;;;11.40;97.30;;;;;;4979680;28;20275;-94
2022/09/17 03:59:48;;;;;;;1.00;0.90;;;11.40;97.30;;;;;;4988964;28;20704;-92
2022/09/17 04:02:13;;;;;;;0.90;0.80;;;11.40;97.30;;;;;;4983485;28;20476;-92
2022/09/17 04:04:39;;;;;;;0.90;0.80;;;11.40;97.30;;;;;;5025517;23;20217;-90
2022/09/17 04:07:05;;;;;;;1.10;1.00;;;11.40;97.30;;;;;;4997452;28;20197;-93
2022/09/17 04:09:31;;;;;;;0.93;0.87;;;11.40;97.30;;;;;;5000376;28;20192;-93
2022/09/17 04:11:56;;;;;;;1.10;1.00;;;11.40;97.30;;;;;;4985803;28;20272;-92
2022/09/17 04:14:22;;;;;;;1.10;1.00;;;11.40;97.30;;;;;;4982399;28;20429;-93
2022/09/17 04:16:47;;;;;;;0.80;0.80;;;11.40;97.30;;;;;;4986733;28;20212;-92
2022/09/17 04:19:13;;;;;;;1.00;0.90;;;11.30;97.30;;;;;;4995078;28;20193;-94
2022/09/17 04:21:38;;;;;;;1.07;0.97;;;11.30;97.30;;;;;;4984682;28;20184;-93
2022/09/17 04:24:04;;;;;;;1.00;0.90;;;11.20;97.30;;;;;;4983516;28;20220;-94
2022/09/17 04:26:30;;;;;;;1.10;1.00;;;11.30;97.30;;;;;;4976283;28;20370;-93
2022/09/17 04:28:55;;;;;;;1.00;0.90;;;11.30;97.30;;;;;;4996474;28;20188;-93
2022/09/17 04:31:23;;;;;;;1.10;1.03;;;11.30;97.30;;;;;;4976680;28;20181;-93
2022/09/17 04:33:49;;;;;;;1.27;1.17;;;11.30;97.30;;;;;;4979316;28;20186;-94
2022/09/17 04:36:17;;;;;;;1.10;1.00;;;11.30;97.30;;;;;;4978509;28;20444;-96
2022/09/17 04:38:42;;;;;;;1.00;0.90;;;11.30;97.30;;;;;;4997080;28;20471;-94
2022/09/17 04:41:08;;;;;;;1.17;1.07;;;11.30;97.30;;;;;;4992037;28;20420;-92
2022/09/17 04:43:34;;;;;;;1.00;0.90;;;11.30;97.30;;;;;;5013647;28;20288;-94
2022/09/17 04:45:59;;;;;;;1.00;0.90;;;11.30;97.30;;;;;;4999091;28;20627;-93
2022/09/17 04:48:28;;;;;;;1.00;0.90;;;11.30;97.30;;;;;;4985092;28;20185;-93
2022/09/17 04:50:53;;;;;;;3.93;1.50;;;11.30;97.30;;;;;;5010372;28;20722;-93
2022/09/17 04:53:18;;;;;;;1.10;1.00;;;11.30;97.30;;;;;;4984951;28;20420;-93
2022/09/17 04:55:44;;;;;;;1.10;1.00;;;11.20;97.30;;;;;;5010548;28;20229;-93
2022/09/17 04:58:10;;;;;;;1.10;1.00;;;11.30;97.30;;;;;;4976021;28;20544;-93
2022/09/17 05:00:39;;;;;;;1.00;0.90;;;11.20;97.30;;;;;;4982168;28;20193;-93
2022/09/17 05:03:04;;;;;;;1.00;0.90;;;11.20;97.30;;;;;;4989742;28;20473;-92
2022/09/17 05:05:32;;;;;;;1.00;0.90;;;11.20;97.30;;;;;;5004444;28;21033;-92
2022/09/17 05:07:58;;;;;;;1.27;1.17;;;11.20;97.30;;;;;;4989064;28;20185;-91
2022/09/17 05:10:24;;;;;;;1.20;1.10;;;11.20;97.30;;;;;;4975878;28;20437;-92
2022/09/17 05:12:52;;;;;;;0.90;0.90;;;11.20;97.30;;;;;;4991675;28;20186;-93
2022/09/17 05:15:17;;;;;;;1.50;1.40;;;11.20;97.30;;;;;;4977992;28;20739;-90
2022/09/17 05:17:43;;;;;;;1.00;0.90;;;11.30;97.30;;;;;;4984868;28;20531;-91
2022/09/17 05:20:10;;;;;;;1.00;0.90;;;11.30;97.30;;;;;;4996095;28;20185;-92
2022/09/17 05:22:44;;;;;;;0.87;0.83;;;11.30;97.30;;;;;;4985041;28;20463;-93
2022/09/17 05:25:11;;;;;;;1.10;1.07;;;11.30;97.30;;;;;;4980687;28;20449;-93
2022/09/17 05:27:38;;;;;;;1.03;0.93;;;11.30;97.30;;;;;;4980245;28;20697;-93
2022/09/17 05:30:04;;;;;;;0.80;0.80;;;11.30;97.30;;;;;;4973928;28;20533;-93
2022/09/17 05:32:30;;;;;;;1.10;1.00;;;11.40;97.30;;;;;;4976406;28;20428;-92
2022/09/17 05:34:55;;;;;;;3.63;1.73;;;11.40;97.30;;;;;;5084149;23;20474;-90
2022/09/17 05:37:21;;;;;;;0.90;0.80;;;11.40;97.30;;;;;;5002346;28;20276;-93
2022/09/17 05:39:46;;;;;;;1.10;1.00;;;11.40;97.30;;;;;;5029075;28;20205;-92
2022/09/17 05:42:11;;;;;;;0.93;0.87;;;11.50;97.30;;;;;;5027102;28;20670;-93
2022/09/17 05:44:37;;;;;;;0.80;0.80;;;11.50;97.30;;;;;;5012704;28;20711;-93
2022/09/17 05:47:03;;;;;;;1.40;1.30;;;11.50;97.30;;;;;;5011563;28;20223;-92
2022/09/17 05:49:28;;;;;;;7.53;1.33;;;11.50;97.30;;;;;;5012875;28;20185;-93
2022/09/17 05:51:54;;;;;;;1.10;1.00;;;11.60;97.30;;;;;;5012620;28;20686;-93
2022/09/17 05:54:19;;;;;;;1.20;1.10;;;11.60;97.30;;;;;;5011868;28;20412;-93
2022/09/17 05:56:47;;;;;;;1.60;1.40;;;11.60;97.30;;;;;;5011745;28;20208;-92
2022/09/17 05:59:14;;;;;;;2.20;1.83;;;11.60;97.30;;;;;;5027976;28;20315;-93
2022/09/17 06:01:39;;;;;;;1.00;0.90;;;11.70;97.30;;;;;;5012259;28;20424;-93
2022/09/17 06:04:05;;;;;;;1.07;0.97;;;11.80;97.30;;;;;;5011240;28;20470;-94
2022/09/17 06:06:30;;;;;;;1.33;1.30;;;11.80;97.30;;;;;;5012854;28;20197;-93
2022/09/17 06:08:59;;;;;;;3.80;1.80;;;11.90;97.30;;;;;;5013543;28;20209;-93
2022/09/17 06:11:27;;;;;;;7.20;1.87;;;11.90;97.30;;;;;;5010466;28;20189;-93
2022/09/17 06:13:53;;;;;;;1.53;1.13;;;12.00;97.30;;;;;;5013017;28;20482;-93
2022/09/17 06:16:23;;;;;;;3.77;2.33;;;12.00;97.30;;;;;;5014353;28;20451;-94
2022/09/17 06:18:51;;;;;;;1.10;1.10;;;12.00;97.30;;;;;;5013276;28;20433;-94
2022/09/17 06:21:17;;;;;;;1.47;1.37;;;12.00;97.30;;;;;;5011885;28;20792;-94
2022/09/17 06:23:43;;;;;;;4.53;2.60;;;12.00;97.30;;;;;;5012693;28;20452;-93
2022/09/17 06:26:10;;;;;;;2.13;1.30;;;12.00;97.30;;;;;;5012767;28;20450;-93
2022/09/17 06:28:38;;;;;;;3.10;1.77;;;12.10;97.30;;;;;;5011892;28;20956;-94
2022/09/17 06:31:08;;;;;;;1.40;1.30;;;12.10;97.30;;;;;;5015060;28;20785;-94
2022/09/17 06:33:35;;;;;;;1.53;1.43;;;12.10;97.30;;;;;;5011385;28;20424;-94
2022/09/17 06:36:06;;;;;;;2.60;2.40;;;12.20;97.30;;;;;;5012062;28;20494;-93
2022/09/17 06:38:34;;;;;;;1.50;1.40;;;12.20;97.30;;;;;;5008392;28;20433;-94
2022/09/17 06:40:59;;;;;;;1.10;1.00;;;12.20;97.30;;;;;;5012812;28;20439;-93
2022/09/17 06:43:26;;;;;;;1.50;1.40;;;12.10;97.30;;;;;;5010341;28;20460;-94
2022/09/17 06:45:59;;;;;;;1.07;1.00;;;12.20;97.30;;;;;;5008616;28;20205;-94
2022/09/17 06:48:26;;;;;;;2.20;1.30;;;12.20;97.30;;;;;;5014099;28;20431;-94
2022/09/17 06:50:53;;;;;;;6.60;1.60;;;12.20;97.30;;;;;;5011801;28;20818;-94
2022/09/17 06:53:19;;;;;;;1.20;1.13;;;12.30;97.30;;;;;;5014451;28;20428;-93
2022/09/17 06:55:45;;;;;;;3.50;2.00;;;12.30;97.30;;;;;;5011782;28;20481;-94
2022/09/17 06:58:12;;;;;;;1.40;1.20;;;12.30;97.30;;;;;;5011488;28;20504;-92
2022/09/17 07:00:38;;;;;;;2.33;1.27;;;12.40;97.30;;;;;;5008134;28;20189;-93
2022/09/17 07:03:04;;;;;;;1.43;1.37;;;12.40;97.30;;;;;;5006385;28;20771;-93
2022/09/17 07:05:31;;;;;;;1.27;1.27;;;12.50;97.30;;;;;;5009326;28;21147;-92
2022/09/17 07:08:04;;;;;;;1.03;0.97;;;12.50;97.30;;;;;;5024019;28;20699;-95
2022/09/17 07:10:30;;;;;;;1.10;1.00;;;12.50;97.30;;;;;;5017457;28;20491;-94
2022/09/17 07:13:03;;;;;;;1.60;1.50;;;12.60;97.30;;;;;;5012573;28;20487;-93
2022/09/17 07:15:32;;;;;;;1.10;1.00;;;12.60;97.30;;;;;;5022032;28;20440;-94
2022/09/17 07:18:18;;;;;;;1.00;0.90;;;12.60;97.30;;;;;;5023402;28;20439;-93
2022/09/17 07:20:44;;;;;;;1.30;1.20;;;12.60;97.30;;;;;;5027394;28;20416;-93
2022/09/17 07:23:09;;;;;;;1.40;1.30;;;12.60;97.30;;;;;;5023667;28;20471;-96
2022/09/17 07:25:38;;;;;;;2.40;0.90;;;12.60;97.30;;;;;;5031067;28;20336;-94
2022/09/17 07:28:25;;;;;;;4.40;1.23;;;12.60;97.30;;;;;;5032248;28;20198;-93
2022/09/17 07:45:45;;;;;;;1.10;1.00;;;13.00;97.30;;;;;;4977285;23;20494;-92
2022/09/17 07:48:13;;;;;;;1.57;1.50;;;13.00;97.30;;;;;;5004056;28;20479;-92
2022/09/17 07:50:39;;;;;;;3.53;2.40;;;13.00;97.30;;;;;;5025501;28;20469;-91
2022/09/17 07:53:05;;;;;;;1.10;1.00;;;13.10;97.30;;;;;;5035615;28;20832;-90
2022/09/17 07:55:36;;;;;;;1.87;1.77;;;13.20;97.30;;;;;;5067247;23;20255;-94
2022/09/17 07:58:05;;;;;;;1.87;1.20;;;13.20;97.30;;;;;;5028254;28;20185;-91
2022/09/17 08:00:33;;;;;;;1.10;1.00;;;13.30;97.30;;;;;;5028499;28;20413;-94
2022/09/17 08:02:59;;;;;;;1.97;1.60;;;13.20;97.30;;;;;;5016298;28;20518;-92
2022/09/17 08:07:54;;;;;;;1.00;0.90;;;13.30;97.30;;;;;;5007291;28;20220;-91
2022/09/17 08:10:22;;;;;;;2.23;1.30;;;13.30;97.30;;;;;;5010085;28;20421;-89
2022/09/17 08:12:48;;;;;;;1.77;1.17;;;13.30;97.30;;;;;;5010240;28;20185;-92
2022/09/17 08:15:18;;;;;;;1.20;1.03;;;13.30;97.30;;;;;;4995189;28;20456;-92
2022/09/17 08:17:44;;;;;;;2.27;0.97;;;13.40;97.30;;;;;;5005428;28;20429;-91
2022/09/17 08:20:11;;;;;;;4.07;3.83;;;13.40;97.30;;;;;;4995314;28;20457;-89
2022/09/17 08:22:37;;;;;;;1.53;1.43;;;13.40;97.30;;;;;;4993358;28;20456;-91
2022/09/17 08:25:08;;;;;;;1.00;0.90;;;13.40;97.30;;;;;;4994202;28;20495;-92
2022/09/17 08:27:35;;;;;;;1.20;1.10;;;13.40;97.30;;;;;;5004052;28;20189;-92
2022/09/17 08:30:07;;;;;;;2.40;1.13;;;13.30;97.30;;;;;;4987892;28;20425;-91
2022/09/17 08:32:33;;;;;;;1.00;0.90;;;13.30;97.30;;;;;;4994951;28;20484;-95
2022/09/17 08:35:06;;;;;;;1.00;0.90;;;13.30;97.30;;;;;;5001958;28;20437;-92
2022/09/17 08:53:23;;;;;;;1.00;0.90;;;13.40;97.30;;;;;;5031798;28;20540;-94
2022/09/17 08:56:08;;;;;;;0.93;0.83;;;13.40;97.30;;;;;;4989158;28;20512;-94
2022/09/17 08:59:10;;;;;;;3.80;0.90;;;13.40;97.30;;;;;;4998383;28;20398;-93
2022/09/17 09:01:50;;;;;;;23.80;2.40;;;13.50;97.30;;;;;;5021524;28;20440;-94
2022/09/17 09:04:34;;;;;;;1.10;1.00;;;13.50;97.30;;;;;;5001673;28;20463;-93
2022/09/17 09:07:17;;;;;;;;;;;;;;;;;;;;;
2022/09/17 09:10:03;;;;;;;1.30;1.23;;;13.50;97.30;;;;;;5022687;28;20503;-94
2022/09/17 09:12:34;;;;;;;2.50;1.73;;;13.50;97.30;;;;;;5014830;28;20850;-94
2022/09/17 09:15:23;;;;;;;1.40;1.30;;;13.50;97.30;;;;;;5001211;28;20440;-92
2022/09/17 09:17:52;;;;;;;1.00;0.90;;;13.50;97.30;;;;;;5015536;28;20511;-93
2022/09/17 09:21:06;;;;;;;0.90;0.80;;;13.50;97.30;;;;;;5017742;28;20422;-93
2022/09/17 09:23:53;;;;;;;1.10;1.00;;;13.50;97.30;;;;;;4962324;28;20470;-92
2022/09/17 09:26:23;;;;;;;2.67;2.47;;;13.40;97.30;;;;;;4974813;28;20436;-93
2022/09/17 09:29:22;;;;;;;0.90;0.80;;;13.40;97.30;;;;;;4959330;28;20590;-93
2022/09/17 09:32:10;;;;;;;23.67;1.60;;;13.40;97.30;;;;;;4952909;29;20953;-93
2022/09/17 09:34:37;;;;;;;1.87;1.00;;;13.40;97.30;;;;;;4987771;28;20416;-94
2022/09/17 09:37:33;;;;;;;1.47;1.43;;;13.50;97.30;;;;;;4978818;28;20475;-96
2022/09/17 09:40:34;;;;;;;1.90;1.40;;;13.60;97.30;;;;;;5013466;28;20420;-93
2022/09/17 09:43:53;;;;;;;;;;;;;;;;;;;;;
2022/09/17 10:09:02;;;;;;;2.60;1.13;;;14.20;96.10;;;;;;4962413;28;20441;-94
2022/09/17 10:11:32;;;;;;;1.10;1.00;;;14.20;96.00;;;;;;4971947;28;20430;-94
2022/09/17 10:14:45;;;;;;;1.20;1.10;;;14.30;96.20;;;;;;4970415;28;20182;-92
2022/09/17 10:20:09;;;;;;;6.40;1.97;;;14.50;94.60;;;;;;4976825;28;20499;-94
2022/09/17 10:22:43;;;;;;;1.10;1.00;;;14.50;94.20;;;;;;4980078;28;20472;-93
2022/09/17 10:29:13;;;;;;;1.30;1.20;;;14.50;94.00;;;;;;4906940;29;20439;-94
2022/09/17 10:31:52;;;;;;;1.00;0.90;;;14.60;93.70;;;;;;4931700;29;20518;-93
2022/09/17 10:34:31;;;;;;;1.30;1.20;;;14.70;93.80;;;;;;4916071;29;20556;-93
2022/09/17 10:37:04;;;;;;;1.10;1.00;;;14.70;92.80;;;;;;4932001;29;20724;-92
2022/09/17 10:40:25;;;;;;;1.10;1.00;;;14.60;91.50;;;;;;4951473;28;20421;-93
2022/09/17 10:43:15;;;;;;;1.00;0.90;;;14.60;91.50;;;;;;4949355;28;20477;-94
2022/09/17 10:46:03;;;;;;;2.13;1.10;;;14.60;92.80;;;;;;4971771;28;20503;-90
2022/09/17 10:52:02;;;;;;;1.57;1.03;;;14.80;93.00;;;;;;4899197;29;20852;-94
2022/09/17 10:55:14;;;;;;;0.93;0.83;;;14.90;91.10;;;;;;4977301;28;20426;-95
2022/09/17 10:58:13;;;;;;;0.90;0.90;;;15.00;89.80;;;;;;4960310;28;20434;-94
2022/09/17 11:00:42;;;;;;;1.00;0.90;;;15.00;89.00;;;;;;4998802;28;20431;-91
2022/09/17 11:03:32;;;;;;;1.00;0.90;;;14.80;88.60;;;;;;4988734;28;20454;-92
2022/09/17 11:07:04;;;;;;;4.67;0.90;;;14.80;89.20;;;;;;4992369;28;20460;-92
2022/09/17 11:12:44;;;;;;;3.93;1.73;;;14.90;90.30;;;;;;4912289;29;20417;-94
2022/09/17 11:41:05;;;;;;;9.00;1.53;;;14.50;93.40;;;;;;5049365;28;20463;-92
2022/09/17 11:43:41;;;;;;;0.90;0.80;;;14.40;93.80;;;;;;5024293;28;20482;-90
2022/09/17 11:46:21;;;;;;;2.70;1.00;;;14.30;94.20;;;;;;5032791;28;20987;-91
2022/09/17 11:49:04;;;;;;;1.03;0.93;;;14.40;94.70;;;;;;5028418;28;20410;-93
2022/09/17 11:51:55;;;;;;;1.57;1.30;;;14.50;94.90;;;;;;5034712;28;20479;-92
2022/09/17 11:54:32;;;;;;;1.00;0.90;;;14.80;94.90;;;;;;5056309;28;20437;-91
2022/09/17 12:00:13;;;;;;;1.43;1.30;;;15.20;93.40;;;;;;5045244;28;20425;-92
2022/09/17 12:02:53;;;;;;;1.47;1.37;;;15.20;91.90;;;;;;5065008;28;20478;-91
2022/09/17 12:05:45;;;;;;;0.87;0.80;;;15.20;92.40;;;;;;5042717;23;20494;-90
2022/09/17 12:08:22;;;;;;;1.73;1.00;;;15.40;93.00;;;;;;5051541;28;20411;-91
2022/09/17 12:11:23;;;;;;;1.00;0.90;;;15.60;91.90;;;;;;5041128;28;20413;-91
2022/09/17 12:13:54;;;;;;;18.10;2.00;;;15.80;92.70;;;;;;5009219;28;20407;-91
2022/09/17 12:16:42;;;;;;;1.00;0.90;;;16.00;90.50;;;;;;5037903;28;20434;-93
2022/09/17 12:19:34;;;;;;;3.53;1.27;;;16.20;90.10;;;;;;5046401;28;20450;-91
2022/09/17 12:22:23;;;;;;;3.23;1.10;;;16.40;89.00;;;;;;5040734;28;20505;-91
2022/09/17 12:24:53;;;;;;;1.43;1.13;;;16.60;89.10;;;;;;5034049;28;20447;-91
2022/09/17 12:27:42;;;;;;;1.00;0.93;;;16.80;89.30;;;;;;5056750;28;20406;-90
2022/09/17 12:30:18;;;;;;;1.90;1.80;;;17.00;89.00;;;;;;5028032;28;20415;-91
2022/09/17 12:33:10;;;;;;;1.00;0.90;;;17.30;87.00;;;;;;5013137;28;20445;-92
2022/09/17 12:35:54;;;;;;;1.33;1.27;;;17.50;86.40;;;;;;5015601;28;20435;-91
2022/09/17 12:38:57;;;;;;;1.47;1.10;;;17.70;82.30;;;;;;5015471;28;20788;-93
2022/09/17 12:41:45;;;;;;;1.10;1.00;;;17.80;81.70;;;;;;5013224;28;20419;-93
2022/09/17 12:48:25;;;;;;;1.67;1.57;;;18.30;83.30;;;;;;5019655;28;20993;-93
2022/09/17 12:51:34;;;;;;;1.13;1.03;;;18.50;81.70;;;;;;5016978;28;20422;-94
2022/09/17 12:54:32;;;;;;;1.00;1.00;;;18.50;82.20;;;;;;5016423;28;20418;-91
2022/09/17 12:57:25;;;;;;;1.37;1.30;;;18.20;81.90;;;;;;5016640;28;20782;-91
2022/09/17 13:03:43;;;;;;;1.07;0.97;;;18.10;81.20;;;;;;4965097;29;20466;-95
2022/09/17 13:06:32;;;;;;;1.67;1.10;;;17.90;80.10;;;;;;5008062;28;20479;-94
2022/09/17 13:09:44;;;;;;;1.67;0.90;;;17.70;80.20;;;;;;5024194;28;20473;-93
2022/09/17 13:12:42;;;;;;;1.53;1.20;;;17.80;80.70;;;;;;5017300;28;20479;-91
2022/09/17 13:15:45;;;;;;;1.10;1.07;;;17.80;80.10;;;;;;4995216;28;20438;-90
2022/09/17 13:18:54;;;;;;;1.30;1.23;;;17.60;80.00;;;;;;5032503;28;20409;-92
2022/09/17 13:22:05;;;;;;;5.70;3.17;;;17.20;80.30;;;;;;4974443;28;20475;-91
2022/09/17 13:25:33;;;;;;;1.00;0.90;;;16.80;82.00;;;;;;4935413;28;20871;-92
2022/09/17 13:28:12;;;;;;;1.30;1.00;;;16.50;82.10;;;;;;4898261;29;20865;-91
2022/09/17 13:31:05;;;;;;;1.63;1.50;;;16.20;82.40;;;;;;4899633;29;21003;-91
2022/09/17 13:34:44;;;;;;;0.90;0.80;;;16.00;81.00;;;;;;4898507;29;20413;-92
2022/09/17 13:40:45;;;;;;;1.00;0.90;;;15.60;83.80;;;;;;4899029;28;20488;-92
2022/09/17 13:43:45;;;;;;;1.13;1.10;;;15.50;86.30;;;;;;4998014;28;20496;-92
2022/09/17 13:46:35;;;;;;;0.90;0.90;;;15.40;88.60;;;;;;4970426;28;20500;-92
2022/09/17 13:49:11;;;;;;;0.80;0.80;;;15.30;88.70;;;;;;4924013;29;20411;-92
2022/09/17 13:51:37;;;;;;;2.93;1.93;;;15.20;90.30;;;;;;5048790;28;20414;-93
2022/09/17 13:54:18;;;;;;;;;;;;;;;;;;;;;
2022/09/17 13:57:15;;;;;;;1.50;1.10;;;14.80;93.10;;;;;;5054842;28;20623;-92
2022/09/17 14:02:52;;;;;;;1.23;1.17;;;14.40;94.60;;;;;;5020046;28;20515;-91
2022/09/17 14:05:45;;;;;;;1.00;0.90;;;14.60;94.00;;;;;;5040646;28;20495;-90
2022/09/17 14:09:03;;;;;;;1.47;1.20;;;15.10;93.60;;;;;;5047320;28;20417;-91
2022/09/17 14:11:55;;;;;;;13.90;1.83;;;15.60;92.20;;;;;;4976015;28;20417;-91
2022/09/17 14:51:03;;;;;;;1.13;1.03;;;15.00;87.60;;;;;;5016047;28;21014;-94
2022/09/17 14:53:35;;;;;;;1.47;0.90;;;14.90;86.30;;;;;;4997054;28;20446;-93
2022/09/17 14:57:05;;;;;;;1.23;1.00;;;14.80;87.70;;;;;;5021516;23;21017;-92
2022/09/17 15:00:01;;;;;;;1.63;1.30;;;14.90;88.40;;;;;;4917502;29;20766;-92
2022/09/17 15:05:38;;;;;;;1.30;1.20;;;15.00;87.50;;;;;;4974818;28;20444;-91
2022/09/17 15:08:14;;;;;;;1.23;0.90;;;14.80;85.10;;;;;;5011176;28;20437;-92
2022/09/17 15:11:01;;;;;;;11.13;1.67;;;14.80;85.90;;;;;;5039540;28;20501;-93
2022/09/17 15:13:55;;;;;;;1.00;0.90;;;14.90;86.10;;;;;;5055002;28;20441;-92
2022/09/17 15:33:17;;;;;;;0.93;0.87;;;17.10;79.30;;;;;;5015068;28;20472;-91
2022/09/17 15:36:33;;;;;;;0.83;0.80;;;17.20;79.20;;;;;;4998888;28;20455;-91
2022/09/17 15:39:58;;;;;;;1.10;1.00;;;17.10;78.00;;;;;;4951958;28;20420;-91
2022/09/17 15:42:28;;;;;;;6.67;1.00;;;16.90;78.90;;;;;;5006451;28;20412;-92
2022/09/17 15:45:30;;;;;;;0.93;0.87;;;16.90;78.50;;;;;;5017589;28;20444;-91
2022/09/17 15:51:27;;;;;;;1.00;0.90;;;16.60;80.00;;;;;;4955315;29;20434;-91
2022/09/17 15:53:58;;;;;;;1.17;1.10;;;16.30;81.90;;;;;;5009535;28;20427;-91
2022/09/17 15:56:31;;;;;;;2.50;1.33;;;16.10;83.00;;;;;;4999457;28;20465;-91
2022/09/17 15:59:04;;;;;;;0.93;0.83;;;15.90;83.90;;;;;;5016217;28;20941;-93
2022/09/17 16:01:32;;;;;;;7.20;1.20;;;15.70;85.30;;;;;;5015120;28;20450;-91
2022/09/17 16:03:58;;;;;;;1.10;1.00;;;15.40;85.40;;;;;;5017070;28;20494;-92
2022/09/17 16:06:24;;;;;;;1.10;1.00;;;15.20;85.60;;;;;;5025950;28;20558;-90
2022/09/17 16:08:51;;;;;;;3.20;3.00;;;15.00;86.20;;;;;;5019685;28;20169;-90
2022/09/17 16:11:22;;;;;;;0.90;0.80;;;14.90;86.20;;;;;;5017356;28;20420;-91
2022/09/17 16:16:21;;;;;;;1.00;0.90;;;14.70;86.40;;;;;;4990738;28;20984;-89
2022/09/17 16:18:48;;;;;;;1.43;1.00;;;14.60;84.90;;;;;;4974728;28;20420;-90
2022/09/17 16:21:15;;;;;;;1.00;0.90;;;14.50;85.40;;;;;;4993541;28;20467;-90
2022/09/17 16:23:41;;;;;;;1.30;1.10;;;14.50;85.10;;;;;;4973395;28;20477;-89
2022/09/17 16:26:13;;;;;;;1.00;0.90;;;14.40;85.30;;;;;;4971997;28;20553;-87
2022/09/17 16:28:39;;;;;;;1.03;0.97;;;14.40;85.40;;;;;;4997471;28;20417;-89
2022/09/17 16:31:05;;;;;;;0.87;0.83;;;14.30;85.00;;;;;;4993914;28;20417;-90